Saffell, Arkansas
Current Conditions -  °F | °C
As of 7:56 AM on Saturday 22 Nov 2014 (Local Time) from KM19 Reporting Station
Overcast Overcast  
Wind Chill: 52°   Ceiling: 6000
Heat Index: 52°   Visibility: 10mi
Dew Point: 49°   Wind: 9mph
Humidity: 89%   Direction: 180°S
Pressure: 30.22"   Gusts: NA
Location:  35.92°N, 91.29°W
Report Text: KM19 221356Z AUTO 18008KT 10SM OVC060 11/09 A3022 RMK AO2 T01110094 SLP233
Loading
Personal Weather Stations






























Interactive Weather Map New forecast layout! Learn more

10-Day Weather Forecast

Advertisements
Track Severe Weather on mobile